New Century 1 — H9LA — position and weather

sailwx.info

Track history (hours):
 
Tides and Currents Weather Stations Pressure Air Temp Water Temp Dewpoint Dewpoint Depression Visibility Wind Speed Wind Dir Waves Ship Positions

New Century 1

Last reported at 2017-Jan-10 18:00 UTC. Time now 2017-Jan-19 02:15 UTC.
Position N 47°12' W 138°30'.
Warning: this ship's position is 8 days out of date.

Length 200 m; beam 32.3 m.

Type: Cargo ship. MMSI: 355234000.

Wind from 060 at 15 knots

Barometer 1003.8 mb
Air temperature 7.0 ° C
Visibility: greater than 5.4 NM
Dewpoint 7.0 ° C

Date/timePositionNaut miles runAvg speedWind from/ knotsBaromVisibWave heightAir tempDewpointWater temp
2017-Jan-10 18:00N 47°12' W 138°30'61714.7 060 / 151003.8 5.4 7.0 7.0
2017-Jan-09 00:00N 39°54' W 128°30'22216.0 230 / 301002.8 5.4 9.0 7.1
2017-Jan-08 10:08N 38°26' W 124°08'1017.0
2017-Jan-08 09:33N 38°22' W 123°56'1717.5
2017-Jan-08 08:34N 38°15' W 123°36'1717.0
2017-Jan-08 07:33N 38°06' W 123°17'1818.2
2017-Jan-08 06:33N 37°55' W 122°59'1716.7
2017-Jan-08 05:33N 37°44' W 122°42'1312.5
2017-Jan-08 04:33N 37°49' W 122°28'1212.0
2017-Jan-08 03:33N 38°01' W 122°24'1211.8
2017-Jan-08 02:33N 38°02' W 122°09'1 0.1
2017-Jan-07 14:22N 38°02' W 122°08'5 6.4
2017-Jan-07 13:33N 38°04' W 122°14'1313.4
2017-Jan-07 12:33N 37°54' W 122°27'9 8.7
2017-Jan-07 11:33N 37°47' W 122°33'9 8.8
2017-Jan-07 10:33N 37°41' W 122°41'1312.9
2017-Jan-07 09:33N 37°28' W 122°40'1010.3
2017-Jan-07 08:33N 37°18' W 122°43'5 4.5
2017-Jan-07 07:33N 37°17' W 122°48'3 3.3
2017-Jan-07 06:33N 37°19' W 122°51'2 1.5
2017-Jan-07 05:33N 37°18' W 122°53'2 2.0
2017-Jan-07 04:33N 37°16' W 122°52'2 1.9
2017-Jan-07 03:33N 37°14' W 122°52'2 1.9
2017-Jan-07 02:30N 37°12' W 122°50'2 1.6
2017-Jan-07 01:33N 37°11' W 122°49'1 1.4
2017-Jan-07 00:33N 37°10' W 122°49'1212.0
2017-Jan-06 23:33N 36°58' W 122°44'1717.4
2017-Jan-06 22:33N 36°42' W 122°38'1717.4
2017-Jan-06 21:33N 36°25' W 122°32'1717.4
2017-Jan-06 20:33N 36°08' W 122°26'1717.2
2017-Jan-06 19:33N 35°52' W 122°20'1716.6
2017-Jan-06 18:33N 35°36' W 122°12'1716.8
2017-Jan-06 17:33N 35°23' W 121°59'1816.9
2017-Jan-06 16:31N 35°10' W 121°46'3416.8
2017-Jan-06 14:31N 34°43' W 121°20'16713.9
2017-Jan-06 02:33N 33°39' W 118°15'5 0.3
2017-Jan-05 12:04N 33°42' W 118°11'3 5.3
2017-Jan-05 11:33N 33°39' W 118°10'6 5.7
2017-Jan-05 10:33N 33°34' W 118°09'8 7.7
2017-Jan-05 09:33N 33°27' W 118°06'8 8.4
2017-Jan-05 08:33N 33°19' W 118°02'8 8.1
2017-Jan-05 07:33N 33°11' W 117°59'8 8.3
2017-Jan-05 06:33N 33°03' W 117°56'7 7.2
2017-Jan-05 05:33N 32°56' W 117°57'1212.5
2017-Jan-05 04:34N 32°48' W 118°08'1616.3
2017-Jan-05 03:33N 32°38' W 118°23'  
2017-Jan-02 00:00N 40°54' E 140°42'   090 / 361024.0 5.4 9.0 7.0
Track history (hours):
 
Tides and Currents Weather Stations Pressure Air Temp Water Temp Dewpoint Dewpoint Depression Visibility Wind Speed Wind Dir Waves Ship Positions

New Century 1

Last reported at 2017-Jan-10 18:00 UTC. Time now 2017-Jan-19 02:15 UTC.
Position N 47°12' W 138°30'.
Warning: this ship's position is 8 days out of date.

Length 200 m; beam 32.3 m.

Type: Cargo ship. MMSI: 355234000.

Wind from 060 at 15 knots

Barometer 1003.8 mb
Air temperature 7.0 ° C
Visibility: greater than 5.4 NM
Dewpoint 7.0 ° C

Date/timePositionNaut miles runAvg speedWind from/ knotsBaromVisibWave heightAir tempDewpointWater temp
2017-Jan-10 18:00N 47°12' W 138°30'61714.7 060 / 151003.8 5.4 7.0 7.0
2017-Jan-09 00:00N 39°54' W 128°30'22216.0 230 / 301002.8 5.4 9.0 7.1
2017-Jan-08 10:08N 38°26' W 124°08'1017.0
2017-Jan-08 09:33N 38°22' W 123°56'1717.5
2017-Jan-08 08:34N 38°15' W 123°36'1717.0
2017-Jan-08 07:33N 38°06' W 123°17'1818.2
2017-Jan-08 06:33N 37°55' W 122°59'1716.7
2017-Jan-08 05:33N 37°44' W 122°42'1312.5
2017-Jan-08 04:33N 37°49' W 122°28'1212.0
2017-Jan-08 03:33N 38°01' W 122°24'1211.8
2017-Jan-08 02:33N 38°02' W 122°09'1 0.1
2017-Jan-07 14:22N 38°02' W 122°08'5 6.4
2017-Jan-07 13:33N 38°04' W 122°14'1313.4
2017-Jan-07 12:33N 37°54' W 122°27'9 8.7
2017-Jan-07 11:33N 37°47' W 122°33'9 8.8
2017-Jan-07 10:33N 37°41' W 122°41'1312.9
2017-Jan-07 09:33N 37°28' W 122°40'1010.3
2017-Jan-07 08:33N 37°18' W 122°43'5 4.5
2017-Jan-07 07:33N 37°17' W 122°48'3 3.3
2017-Jan-07 06:33N 37°19' W 122°51'2 1.5
2017-Jan-07 05:33N 37°18' W 122°53'2 2.0
2017-Jan-07 04:33N 37°16' W 122°52'2 1.9
2017-Jan-07 03:33N 37°14' W 122°52'2 1.9
2017-Jan-07 02:30N 37°12' W 122°50'2 1.6
2017-Jan-07 01:33N 37°11' W 122°49'1 1.4
2017-Jan-07 00:33N 37°10' W 122°49'1212.0
2017-Jan-06 23:33N 36°58' W 122°44'1717.4
2017-Jan-06 22:33N 36°42' W 122°38'1717.4
2017-Jan-06 21:33N 36°25' W 122°32'1717.4
2017-Jan-06 20:33N 36°08' W 122°26'1717.2
2017-Jan-06 19:33N 35°52' W 122°20'1716.6
2017-Jan-06 18:33N 35°36' W 122°12'1716.8
2017-Jan-06 17:33N 35°23' W 121°59'1816.9
2017-Jan-06 16:31N 35°10' W 121°46'3416.8
2017-Jan-06 14:31N 34°43' W 121°20'16713.9
2017-Jan-06 02:33N 33°39' W 118°15'5 0.3
2017-Jan-05 12:04N 33°42' W 118°11'3 5.3
2017-Jan-05 11:33N 33°39' W 118°10'6 5.7
2017-Jan-05 10:33N 33°34' W 118°09'8 7.7
2017-Jan-05 09:33N 33°27' W 118°06'8 8.4
2017-Jan-05 08:33N 33°19' W 118°02'8 8.1
2017-Jan-05 07:33N 33°11' W 117°59'8 8.3
2017-Jan-05 06:33N 33°03' W 117°56'7 7.2
2017-Jan-05 05:33N 32°56' W 117°57'1212.5
2017-Jan-05 04:34N 32°48' W 118°08'1616.3
2017-Jan-05 03:33N 32°38' W 118°23'  
2017-Jan-02 00:00N 40°54' E 140°42'   090 / 361024.0 5.4 9.0 7.0

Dump ship's entire track history